sensor_id;sensor_type;location;lat;lon;timestamp;P1;durP1;ratioP1;P2;durP2;ratioP2
70078;SDS011;57451;52.496;13.456;2023-02-13T00:01:21;23.63;;;10.00;;
70078;SDS011;57451;52.496;13.456;2023-02-13T00:03:48;22.43;;;9.00;;
70078;SDS011;57451;52.496;13.456;2023-02-13T00:06:15;24.42;;;10.07;;
70078;SDS011;57451;52.496;13.456;2023-02-13T00:08:43;22.92;;;10.32;;
70078;SDS011;57451;52.496;13.456;2023-02-13T00:11:11;25.13;;;9.57;;
70078;SDS011;57451;52.496;13.456;2023-02-13T00:13:39;24.35;;;9.75;;
70078;SDS011;57451;52.496;13.456;2023-02-13T00:16:06;18.87;;;8.97;;
70078;SDS011;57451;52.496;13.456;2023-02-13T00:18:34;15.20;;;7.13;;
70078;SDS011;57451;52.496;13.456;2023-02-13T00:21:04;19.35;;;7.50;;
70078;SDS011;57451;52.496;13.456;2023-02-13T00:23:33;16.33;;;7.13;;
70078;SDS011;57451;52.496;13.456;2023-02-13T00:26:04;15.55;;;6.95;;
70078;SDS011;57451;52.496;13.456;2023-02-13T00:28:34;16.77;;;6.27;;
70078;SDS011;57451;52.496;13.456;2023-02-13T00:31:03;13.43;;;5.93;;
70078;SDS011;57451;52.496;13.456;2023-02-13T00:33:31;15.15;;;5.50;;
70078;SDS011;57451;52.496;13.456;2023-02-13T00:36:03;15.23;;;5.93;;
70078;SDS011;57451;52.496;13.456;2023-02-13T00:38:31;12.80;;;4.82;;
70078;SDS011;57451;52.496;13.456;2023-02-13T00:40:59;11.07;;;4.50;;
70078;SDS011;57451;52.496;13.456;2023-02-13T00:43:27;12.15;;;5.25;;
70078;SDS011;57451;52.496;13.456;2023-02-13T00:45:57;12.18;;;5.40;;
70078;SDS011;57451;52.496;13.456;2023-02-13T00:48:24;12.88;;;5.07;;
70078;SDS011;57451;52.496;13.456;2023-02-13T00:50:52;12.00;;;4.93;;
70078;SDS011;57451;52.496;13.456;2023-02-13T00:53:20;13.17;;;5.17;;
70078;SDS011;57451;52.496;13.456;2023-02-13T00:55:48;10.63;;;4.30;;
70078;SDS011;57451;52.496;13.456;2023-02-13T00:58:16;10.98;;;4.38;;
70078;SDS011;57451;52.496;13.456;2023-02-13T01:00:44;11.40;;;4.40;;
70078;SDS011;57451;52.496;13.456;2023-02-13T01:03:14;11.95;;;4.32;;
70078;SDS011;57451;52.496;13.456;2023-02-13T01:05:44;10.30;;;4.07;;
70078;SDS011;57451;52.496;13.456;2023-02-13T01:08:13;12.85;;;4.20;;
70078;SDS011;57451;52.496;13.456;2023-02-13T01:10:41;8.73;;;3.92;;
70078;SDS011;57451;52.496;13.456;2023-02-13T01:13:12;8.90;;;3.13;;
70078;SDS011;57451;52.496;13.456;2023-02-13T01:15:40;8.65;;;3.17;;
70078;SDS011;57451;52.496;13.456;2023-02-13T01:18:08;8.47;;;3.30;;
70078;SDS011;57451;52.496;13.456;2023-02-13T01:20:39;7.15;;;2.60;;
70078;SDS011;57451;52.496;13.456;2023-02-13T01:23:06;7.90;;;2.50;;
70078;SDS011;57451;52.496;13.456;2023-02-13T01:25:33;8.07;;;2.65;;
70078;SDS011;57451;52.496;13.456;2023-02-13T01:28:01;7.10;;;2.40;;
70078;SDS011;57451;52.496;13.456;2023-02-13T01:30:28;6.17;;;2.50;;
70078;SDS011;57451;52.496;13.456;2023-02-13T01:32:55;6.10;;;2.20;;
70078;SDS011;57451;52.496;13.456;2023-02-13T01:35:23;6.97;;;2.30;;
70078;SDS011;57451;52.496;13.456;2023-02-13T01:37:51;6.15;;;2.50;;
70078;SDS011;57451;52.496;13.456;2023-02-13T01:40:18;8.05;;;2.65;;
70078;SDS011;57451;52.496;13.456;2023-02-13T01:42:46;5.73;;;2.50;;
70078;SDS011;57451;52.496;13.456;2023-02-13T01:45:18;5.50;;;2.10;;
70078;SDS011;57451;52.496;13.456;2023-02-13T01:47:49;6.18;;;2.50;;
70078;SDS011;57451;52.496;13.456;2023-02-13T01:50:24;6.78;;;2.60;;
70078;SDS011;57451;52.496;13.456;2023-02-13T01:52:58;6.07;;;2.50;;
70078;SDS011;57451;52.496;13.456;2023-02-13T01:55:30;7.70;;;2.60;;
70078;SDS011;57451;52.496;13.456;2023-02-13T01:58:00;5.47;;;2.20;;
70078;SDS011;57451;52.496;13.456;2023-02-13T02:00:32;5.90;;;2.22;;
70078;SDS011;57451;52.496;13.456;2023-02-13T02:03:01;5.40;;;2.08;;
70078;SDS011;57451;52.496;13.456;2023-02-13T02:05:33;6.22;;;2.38;;
70078;SDS011;57451;52.496;13.456;2023-02-13T02:08:04;5.63;;;2.23;;
70078;SDS011;57451;52.496;13.456;2023-02-13T02:10:35;6.85;;;2.47;;
70078;SDS011;57451;52.496;13.456;2023-02-13T02:13:05;6.35;;;2.30;;
70078;SDS011;57451;52.496;13.456;2023-02-13T02:15:38;7.25;;;2.50;;
70078;SDS011;57451;52.496;13.456;2023-02-13T02:18:09;8.48;;;2.78;;
70078;SDS011;57451;52.496;13.456;2023-02-13T02:20:44;6.30;;;2.57;;
70078;SDS011;57451;52.496;13.456;2023-02-13T02:23:45;7.50;;;2.65;;
70078;SDS011;57451;52.496;13.456;2023-02-13T02:26:51;10.40;;;2.97;;
70078;SDS011;57451;52.496;13.456;2023-02-13T02:32:46;6.95;;;2.55;;
70078;SDS011;57451;52.496;13.456;2023-02-13T02:35:24;8.67;;;2.83;;
70078;SDS011;57451;52.496;13.456;2023-02-13T02:38:02;7.32;;;2.95;;
70078;SDS011;57451;52.496;13.456;2023-02-13T02:40:36;8.57;;;3.38;;
70078;SDS011;57451;52.496;13.456;2023-02-13T02:43:21;6.90;;;3.15;;
70078;SDS011;57451;52.496;13.456;2023-02-13T02:45:55;7.78;;;3.25;;
70078;SDS011;57451;52.496;13.456;2023-02-13T02:48:31;8.27;;;3.30;;
70078;SDS011;57451;52.496;13.456;2023-02-13T02:51:23;8.27;;;3.17;;
70078;SDS011;57451;52.496;13.456;2023-02-13T02:54:00;8.55;;;3.60;;
70078;SDS011;57451;52.496;13.456;2023-02-13T02:56:55;6.55;;;3.08;;
70078;SDS011;57451;52.496;13.456;2023-02-13T02:59:28;8.95;;;3.83;;
70078;SDS011;57451;52.496;13.456;2023-02-13T03:02:15;9.13;;;3.27;;
70078;SDS011;57451;52.496;13.456;2023-02-13T03:05:07;8.68;;;3.40;;
70078;SDS011;57451;52.496;13.456;2023-02-13T03:08:02;8.02;;;3.92;;
70078;SDS011;57451;52.496;13.456;2023-02-13T03:10:31;9.70;;;4.10;;
70078;SDS011;57451;52.496;13.456;2023-02-13T03:13:30;8.30;;;3.75;;
70078;SDS011;57451;52.496;13.456;2023-02-13T03:16:04;9.30;;;3.87;;
70078;SDS011;57451;52.496;13.456;2023-02-13T03:18:51;8.57;;;3.80;;
70078;SDS011;57451;52.496;13.456;2023-02-13T03:21:44;9.50;;;4.03;;
70078;SDS011;57451;52.496;13.456;2023-02-13T03:24:35;9.82;;;4.00;;
70078;SDS011;57451;52.496;13.456;2023-02-13T03:27:13;9.60;;;4.15;;
70078;SDS011;57451;52.496;13.456;2023-02-13T03:30:12;9.23;;;3.97;;
70078;SDS011;57451;52.496;13.456;2023-02-13T03:32:49;11.55;;;4.32;;
70078;SDS011;57451;52.496;13.456;2023-02-13T03:35:31;11.43;;;4.88;;
70078;SDS011;57451;52.496;13.456;2023-02-13T03:38:24;11.63;;;4.50;;
70078;SDS011;57451;52.496;13.456;2023-02-13T03:40:56;11.07;;;4.95;;
70078;SDS011;57451;52.496;13.456;2023-02-13T03:43:46;11.27;;;4.77;;
70078;SDS011;57451;52.496;13.456;2023-02-13T03:46:20;11.35;;;4.90;;
70078;SDS011;57451;52.496;13.456;2023-02-13T03:48:50;11.95;;;5.15;;
70078;SDS011;57451;52.496;13.456;2023-02-13T03:51:38;10.57;;;4.65;;
70078;SDS011;57451;52.496;13.456;2023-02-13T03:54:15;10.18;;;4.95;;
70078;SDS011;57451;52.496;13.456;2023-02-13T03:56:45;11.17;;;4.83;;
70078;SDS011;57451;52.496;13.456;2023-02-13T03:59:34;10.77;;;4.38;;
70078;SDS011;57451;52.496;13.456;2023-02-13T04:02:04;12.23;;;5.13;;
70078;SDS011;57451;52.496;13.456;2023-02-13T04:04:39;10.68;;;4.53;;
70078;SDS011;57451;52.496;13.456;2023-02-13T04:07:14;10.52;;;5.13;;
70078;SDS011;57451;52.496;13.456;2023-02-13T04:09:56;9.87;;;4.77;;
70078;SDS011;57451;52.496;13.456;2023-02-13T04:12:28;10.13;;;4.70;;
70078;SDS011;57451;52.496;13.456;2023-02-13T04:15:03;10.93;;;4.82;;
70078;SDS011;57451;52.496;13.456;2023-02-13T04:17:38;10.15;;;4.82;;
70078;SDS011;57451;52.496;13.456;2023-02-13T04:20:09;10.35;;;5.28;;
70078;SDS011;57451;52.496;13.456;2023-02-13T04:22:40;9.93;;;4.93;;
70078;SDS011;57451;52.496;13.456;2023-02-13T04:25:10;9.02;;;4.40;;
70078;SDS011;57451;52.496;13.456;2023-02-13T04:27:38;8.38;;;4.38;;
70078;SDS011;57451;52.496;13.456;2023-02-13T04:30:06;10.32;;;4.70;;
70078;SDS011;57451;52.496;13.456;2023-02-13T04:32:34;8.88;;;4.68;;
70078;SDS011;57451;52.496;13.456;2023-02-13T04:35:02;10.93;;;4.93;;
70078;SDS011;57451;52.496;13.456;2023-02-13T04:37:29;10.18;;;4.78;;
70078;SDS011;57451;52.496;13.456;2023-02-13T04:39:56;10.50;;;4.78;;
70078;SDS011;57451;52.496;13.456;2023-02-13T04:42:25;10.73;;;5.13;;
70078;SDS011;57451;52.496;13.456;2023-02-13T04:44:52;11.45;;;5.80;;
70078;SDS011;57451;52.496;13.456;2023-02-13T04:47:19;10.17;;;5.27;;
70078;SDS011;57451;52.496;13.456;2023-02-13T04:49:46;11.63;;;6.07;;
70078;SDS011;57451;52.496;13.456;2023-02-13T04:52:14;11.60;;;5.78;;
70078;SDS011;57451;52.496;13.456;2023-02-13T04:54:41;10.73;;;5.85;;
70078;SDS011;57451;52.496;13.456;2023-02-13T04:57:08;12.75;;;6.35;;
70078;SDS011;57451;52.496;13.456;2023-02-13T04:59:37;12.37;;;6.10;;
70078;SDS011;57451;52.496;13.456;2023-02-13T05:02:04;11.25;;;5.75;;
70078;SDS011;57451;52.496;13.456;2023-02-13T05:04:32;12.95;;;6.43;;
70078;SDS011;57451;52.496;13.456;2023-02-13T05:06:59;12.55;;;5.68;;
70078;SDS011;57451;52.496;13.456;2023-02-13T05:09:26;10.90;;;5.35;;
70078;SDS011;57451;52.496;13.456;2023-02-13T05:11:53;10.97;;;5.00;;
70078;SDS011;57451;52.496;13.456;2023-02-13T05:14:21;10.70;;;5.00;;
70078;SDS011;57451;52.496;13.456;2023-02-13T05:16:49;9.93;;;5.20;;
70078;SDS011;57451;52.496;13.456;2023-02-13T05:19:17;11.85;;;5.60;;
70078;SDS011;57451;52.496;13.456;2023-02-13T05:21:44;10.43;;;4.70;;
70078;SDS011;57451;52.496;13.456;2023-02-13T05:24:30;10.70;;;5.17;;
70078;SDS011;57451;52.496;13.456;2023-02-13T05:26:57;11.07;;;4.90;;
70078;SDS011;57451;52.496;13.456;2023-02-13T05:29:25;12.20;;;4.90;;
70078;SDS011;57451;52.496;13.456;2023-02-13T05:31:54;10.50;;;5.00;;
70078;SDS011;57451;52.496;13.456;2023-02-13T05:34:23;9.68;;;4.40;;
70078;SDS011;57451;52.496;13.456;2023-02-13T05:36:51;10.33;;;5.00;;
70078;SDS011;57451;52.496;13.456;2023-02-13T05:39:19;9.25;;;4.72;;
70078;SDS011;57451;52.496;13.456;2023-02-13T05:41:46;9.88;;;4.28;;
70078;SDS011;57451;52.496;13.456;2023-02-13T05:44:15;10.25;;;4.43;;
70078;SDS011;57451;52.496;13.456;2023-02-13T05:46:43;11.75;;;4.38;;
70078;SDS011;57451;52.496;13.456;2023-02-13T05:49:12;9.47;;;4.57;;
70078;SDS011;57451;52.496;13.456;2023-02-13T05:51:40;10.23;;;4.60;;
70078;SDS011;57451;52.496;13.456;2023-02-13T05:54:08;8.95;;;4.50;;
70078;SDS011;57451;52.496;13.456;2023-02-13T05:56:35;12.30;;;4.97;;
70078;SDS011;57451;52.496;13.456;2023-02-13T05:59:02;11.25;;;5.10;;
70078;SDS011;57451;52.496;13.456;2023-02-13T06:01:30;9.40;;;4.90;;
70078;SDS011;57451;52.496;13.456;2023-02-13T06:03:57;10.75;;;4.70;;
70078;SDS011;57451;52.496;13.456;2023-02-13T06:06:28;11.77;;;5.15;;
70078;SDS011;57451;52.496;13.456;2023-02-13T06:08:55;9.57;;;4.60;;
70078;SDS011;57451;52.496;13.456;2023-02-13T06:11:23;9.40;;;4.68;;
70078;SDS011;57451;52.496;13.456;2023-02-13T06:13:50;9.37;;;4.80;;
70078;SDS011;57451;52.496;13.456;2023-02-13T06:16:17;9.55;;;4.53;;
70078;SDS011;57451;52.496;13.456;2023-02-13T06:18:44;10.25;;;4.95;;
70078;SDS011;57451;52.496;13.456;2023-02-13T06:21:11;9.75;;;4.35;;
70078;SDS011;57451;52.496;13.456;2023-02-13T06:23:40;8.77;;;4.43;;
70078;SDS011;57451;52.496;13.456;2023-02-13T06:26:07;10.30;;;4.50;;
70078;SDS011;57451;52.496;13.456;2023-02-13T06:28:35;9.73;;;4.68;;
70078;SDS011;57451;52.496;13.456;2023-02-13T06:31:02;9.43;;;4.53;;
70078;SDS011;57451;52.496;13.456;2023-02-13T06:33:30;9.85;;;4.53;;
70078;SDS011;57451;52.496;13.456;2023-02-13T06:35:57;10.38;;;4.93;;
70078;SDS011;57451;52.496;13.456;2023-02-13T06:38:25;10.20;;;4.87;;
70078;SDS011;57451;52.496;13.456;2023-02-13T06:40:57;9.25;;;4.90;;
70078;SDS011;57451;52.496;13.456;2023-02-13T06:43:25;10.00;;;4.70;;
70078;SDS011;57451;52.496;13.456;2023-02-13T06:45:53;9.15;;;4.22;;
70078;SDS011;57451;52.496;13.456;2023-02-13T06:48:20;10.43;;;4.75;;
70078;SDS011;57451;52.496;13.456;2023-02-13T06:50:47;9.50;;;4.73;;
70078;SDS011;57451;52.496;13.456;2023-02-13T06:53:17;8.88;;;4.60;;
70078;SDS011;57451;52.496;13.456;2023-02-13T06:55:50;9.57;;;4.97;;
70078;SDS011;57451;52.496;13.456;2023-02-13T06:58:19;11.77;;;4.70;;
70078;SDS011;57451;52.496;13.456;2023-02-13T07:00:47;9.02;;;4.65;;
70078;SDS011;57451;52.496;13.456;2023-02-13T07:03:15;8.93;;;4.33;;
70078;SDS011;57451;52.496;13.456;2023-02-13T07:05:42;11.43;;;4.55;;
70078;SDS011;57451;52.496;13.456;2023-02-13T07:08:10;8.90;;;4.43;;
70078;SDS011;57451;52.496;13.456;2023-02-13T07:10:39;8.60;;;4.60;;
70078;SDS011;57451;52.496;13.456;2023-02-13T07:13:07;9.18;;;4.85;;
70078;SDS011;57451;52.496;13.456;2023-02-13T07:15:36;9.40;;;4.67;;
70078;SDS011;57451;52.496;13.456;2023-02-13T07:18:04;9.27;;;4.72;;
70078;SDS011;57451;52.496;13.456;2023-02-13T07:20:32;8.80;;;5.10;;
70078;SDS011;57451;52.496;13.456;2023-02-13T07:22:59;8.93;;;4.65;;
70078;SDS011;57451;52.496;13.456;2023-02-13T07:25:27;7.85;;;4.07;;
70078;SDS011;57451;52.496;13.456;2023-02-13T07:27:57;10.50;;;4.90;;
70078;SDS011;57451;52.496;13.456;2023-02-13T07:30:26;11.15;;;4.75;;
70078;SDS011;57451;52.496;13.456;2023-02-13T07:32:58;9.45;;;4.63;;
70078;SDS011;57451;52.496;13.456;2023-02-13T07:35:25;10.93;;;4.85;;
70078;SDS011;57451;52.496;13.456;2023-02-13T07:37:53;11.80;;;4.93;;
70078;SDS011;57451;52.496;13.456;2023-02-13T07:40:21;11.13;;;5.20;;
70078;SDS011;57451;52.496;13.456;2023-02-13T07:42:48;10.38;;;5.28;;
70078;SDS011;57451;52.496;13.456;2023-02-13T07:45:15;9.85;;;5.38;;
70078;SDS011;57451;52.496;13.456;2023-02-13T07:47:43;11.15;;;5.25;;
70078;SDS011;57451;52.496;13.456;2023-02-13T07:50:12;11.77;;;5.53;;
70078;SDS011;57451;52.496;13.456;2023-02-13T07:52:39;12.67;;;5.60;;
70078;SDS011;57451;52.496;13.456;2023-02-13T07:55:07;11.50;;;5.88;;
70078;SDS011;57451;52.496;13.456;2023-02-13T07:57:34;10.38;;;5.70;;
70078;SDS011;57451;52.496;13.456;2023-02-13T08:00:02;11.52;;;5.40;;
70078;SDS011;57451;52.496;13.456;2023-02-13T08:02:37;9.45;;;4.55;;
70078;SDS011;57451;52.496;13.456;2023-02-13T08:05:04;10.17;;;4.70;;
70078;SDS011;57451;52.496;13.456;2023-02-13T08:07:34;12.15;;;4.65;;
70078;SDS011;57451;52.496;13.456;2023-02-13T08:10:01;9.10;;;4.90;;
70078;SDS011;57451;52.496;13.456;2023-02-13T08:12:47;9.85;;;4.72;;
70078;SDS011;57451;52.496;13.456;2023-02-13T08:15:15;11.75;;;5.30;;
70078;SDS011;57451;52.496;13.456;2023-02-13T08:17:42;12.73;;;5.27;;
70078;SDS011;57451;52.496;13.456;2023-02-13T08:20:10;8.80;;;4.43;;
70078;SDS011;57451;52.496;13.456;2023-02-13T08:22:38;10.90;;;5.18;;
70078;SDS011;57451;52.496;13.456;2023-02-13T08:25:06;12.30;;;5.13;;
70078;SDS011;57451;52.496;13.456;2023-02-13T08:27:33;10.80;;;5.10;;
70078;SDS011;57451;52.496;13.456;2023-02-13T08:30:01;9.70;;;5.07;;
70078;SDS011;57451;52.496;13.456;2023-02-13T08:32:29;10.93;;;5.40;;
70078;SDS011;57451;52.496;13.456;2023-02-13T08:35:05;9.85;;;5.00;;
70078;SDS011;57451;52.496;13.456;2023-02-13T08:37:32;10.23;;;5.25;;
70078;SDS011;57451;52.496;13.456;2023-02-13T08:40:01;12.60;;;5.20;;
70078;SDS011;57451;52.496;13.456;2023-02-13T08:42:28;12.43;;;5.13;;
70078;SDS011;57451;52.496;13.456;2023-02-13T08:44:57;11.73;;;5.35;;
70078;SDS011;57451;52.496;13.456;2023-02-13T08:47:25;11.57;;;5.22;;
70078;SDS011;57451;52.496;13.456;2023-02-13T08:49:52;9.88;;;4.65;;
70078;SDS011;57451;52.496;13.456;2023-02-13T08:52:19;10.77;;;5.35;;
70078;SDS011;57451;52.496;13.456;2023-02-13T08:54:46;11.47;;;5.23;;
70078;SDS011;57451;52.496;13.456;2023-02-13T08:57:15;11.63;;;5.47;;
70078;SDS011;57451;52.496;13.456;2023-02-13T08:59:42;10.88;;;5.57;;
70078;SDS011;57451;52.496;13.456;2023-02-13T09:02:09;12.75;;;4.85;;
70078;SDS011;57451;52.496;13.456;2023-02-13T09:04:37;9.32;;;4.78;;
70078;SDS011;57451;52.496;13.456;2023-02-13T09:07:05;10.97;;;4.97;;
70078;SDS011;57451;52.496;13.456;2023-02-13T09:09:32;10.20;;;4.75;;
70078;SDS011;57451;52.496;13.456;2023-02-13T09:11:59;9.85;;;4.95;;
70078;SDS011;57451;52.496;13.456;2023-02-13T09:14:28;10.68;;;4.85;;
70078;SDS011;57451;52.496;13.456;2023-02-13T09:16:55;10.15;;;4.53;;
70078;SDS011;57451;52.496;13.456;2023-02-13T09:19:22;10.77;;;5.00;;
70078;SDS011;57451;52.496;13.456;2023-02-13T09:21:50;10.23;;;4.90;;
70078;SDS011;57451;52.496;13.456;2023-02-13T09:24:17;11.45;;;6.05;;
70078;SDS011;57451;52.496;13.456;2023-02-13T09:26:44;13.95;;;5.40;;
70078;SDS011;57451;52.496;13.456;2023-02-13T09:29:11;12.20;;;5.25;;
70078;SDS011;57451;52.496;13.456;2023-02-13T09:31:40;11.47;;;4.80;;
70078;SDS011;57451;52.496;13.456;2023-02-13T09:34:07;11.82;;;5.22;;
70078;SDS011;57451;52.496;13.456;2023-02-13T09:36:35;14.15;;;5.32;;
70078;SDS011;57451;52.496;13.456;2023-02-13T09:39:02;11.65;;;5.22;;
70078;SDS011;57451;52.496;13.456;2023-02-13T09:41:30;10.68;;;5.35;;
70078;SDS011;57451;52.496;13.456;2023-02-13T09:44:03;10.97;;;5.27;;
70078;SDS011;57451;52.496;13.456;2023-02-13T09:46:34;13.55;;;5.97;;
70078;SDS011;57451;52.496;13.456;2023-02-13T09:49:05;12.70;;;6.38;;
70078;SDS011;57451;52.496;13.456;2023-02-13T09:51:35;13.07;;;6.10;;
70078;SDS011;57451;52.496;13.456;2023-02-13T09:54:03;13.52;;;6.03;;
70078;SDS011;57451;52.496;13.456;2023-02-13T09:56:37;13.20;;;6.30;;
70078;SDS011;57451;52.496;13.456;2023-02-13T09:59:20;12.82;;;5.70;;
70078;SDS011;57451;52.496;13.456;2023-02-13T10:02:01;14.48;;;6.53;;
70078;SDS011;57451;52.496;13.456;2023-02-13T10:04:46;15.73;;;6.57;;
70078;SDS011;57451;52.496;13.456;2023-02-13T10:07:20;14.38;;;7.05;;
70078;SDS011;57451;52.496;13.456;2023-02-13T10:09:52;15.23;;;7.10;;
70078;SDS011;57451;52.496;13.456;2023-02-13T10:12:36;15.38;;;7.45;;
70078;SDS011;57451;52.496;13.456;2023-02-13T10:15:19;17.48;;;7.68;;
70078;SDS011;57451;52.496;13.456;2023-02-13T10:17:51;16.65;;;8.00;;
70078;SDS011;57451;52.496;13.456;2023-02-13T10:20:26;18.27;;;8.70;;
70078;SDS011;57451;52.496;13.456;2023-02-13T10:22:58;18.63;;;8.63;;
70078;SDS011;57451;52.496;13.456;2023-02-13T10:25:41;18.30;;;7.35;;
70078;SDS011;57451;52.496;13.456;2023-02-13T10:28:14;15.48;;;8.10;;
70078;SDS011;57451;52.496;13.456;2023-02-13T10:30:49;17.95;;;9.13;;
70078;SDS011;57451;52.496;13.456;2023-02-13T10:33:21;17.88;;;8.80;;
70078;SDS011;57451;52.496;13.456;2023-02-13T10:35:57;17.50;;;8.10;;
70078;SDS011;57451;52.496;13.456;2023-02-13T10:38:27;17.80;;;8.25;;
70078;SDS011;57451;52.496;13.456;2023-02-13T10:41:02;17.70;;;8.20;;
70078;SDS011;57451;52.496;13.456;2023-02-13T10:43:35;15.65;;;8.13;;
70078;SDS011;57451;52.496;13.456;2023-02-13T10:46:09;16.13;;;7.70;;
70078;SDS011;57451;52.496;13.456;2023-02-13T10:48:47;13.43;;;6.80;;
70078;SDS011;57451;52.496;13.456;2023-02-13T10:51:27;17.25;;;7.43;;
70078;SDS011;57451;52.496;13.456;2023-02-13T10:54:17;17.83;;;7.93;;
70078;SDS011;57451;52.496;13.456;2023-02-13T10:56:54;15.75;;;7.75;;
70078;SDS011;57451;52.496;13.456;2023-02-13T10:59:34;14.43;;;7.85;;
70078;SDS011;57451;52.496;13.456;2023-02-13T11:02:19;14.77;;;6.83;;
70078;SDS011;57451;52.496;13.456;2023-02-13T11:04:49;11.88;;;6.13;;
70078;SDS011;57451;52.496;13.456;2023-02-13T11:07:20;13.52;;;6.45;;
70078;SDS011;57451;52.496;13.456;2023-02-13T11:09:51;15.82;;;7.18;;
70078;SDS011;57451;52.496;13.456;2023-02-13T11:12:22;12.07;;;6.82;;
70078;SDS011;57451;52.496;13.456;2023-02-13T11:14:55;12.63;;;5.97;;
70078;SDS011;57451;52.496;13.456;2023-02-13T11:17:24;12.70;;;6.68;;
70078;SDS011;57451;52.496;13.456;2023-02-13T11:19:53;14.35;;;7.05;;
70078;SDS011;57451;52.496;13.456;2023-02-13T11:22:28;14.50;;;7.32;;
70078;SDS011;57451;52.496;13.456;2023-02-13T11:24:59;17.35;;;7.55;;
70078;SDS011;57451;52.496;13.456;2023-02-13T11:27:29;15.73;;;7.67;;
70078;SDS011;57451;52.496;13.456;2023-02-13T11:30:00;16.63;;;7.53;;
70078;SDS011;57451;52.496;13.456;2023-02-13T11:32:30;17.20;;;7.80;;
70078;SDS011;57451;52.496;13.456;2023-02-13T11:34:59;15.55;;;7.55;;
70078;SDS011;57451;52.496;13.456;2023-02-13T11:38:04;15.00;;;7.50;;
70078;SDS011;57451;52.496;13.456;2023-02-13T11:40:39;18.43;;;8.10;;
70078;SDS011;57451;52.496;13.456;2023-02-13T11:43:13;15.93;;;8.00;;
70078;SDS011;57451;52.496;13.456;2023-02-13T11:45:44;16.55;;;7.80;;
70078;SDS011;57451;52.496;13.456;2023-02-13T11:48:18;15.30;;;7.47;;
70078;SDS011;57451;52.496;13.456;2023-02-13T11:50:50;15.23;;;7.82;;
70078;SDS011;57451;52.496;13.456;2023-02-13T11:53:21;18.03;;;8.30;;
70078;SDS011;57451;52.496;13.456;2023-02-13T11:56:01;18.00;;;8.65;;
70078;SDS011;57451;52.496;13.456;2023-02-13T11:58:31;20.45;;;8.55;;
70078;SDS011;57451;52.496;13.456;2023-02-13T12:04:00;19.15;;;9.25;;
70078;SDS011;57451;52.496;13.456;2023-02-13T12:06:30;18.43;;;9.50;;
70078;SDS011;57451;52.496;13.456;2023-02-13T12:09:11;18.48;;;8.77;;
70078;SDS011;57451;52.496;13.456;2023-02-13T12:11:41;19.23;;;9.43;;
70078;SDS011;57451;52.496;13.456;2023-02-13T12:14:13;18.45;;;8.73;;
70078;SDS011;57451;52.496;13.456;2023-02-13T12:16:44;21.55;;;9.68;;
70078;SDS011;57451;52.496;13.456;2023-02-13T12:19:17;16.37;;;8.43;;
70078;SDS011;57451;52.496;13.456;2023-02-13T12:21:59;18.70;;;9.27;;
70078;SDS011;57451;52.496;13.456;2023-02-13T12:24:45;20.02;;;9.40;;
70078;SDS011;57451;52.496;13.456;2023-02-13T12:27:33;21.00;;;9.73;;
70078;SDS011;57451;52.496;13.456;2023-02-13T12:30:13;19.42;;;9.80;;
70078;SDS011;57451;52.496;13.456;2023-02-13T12:32:58;19.23;;;9.10;;
70078;SDS011;57451;52.496;13.456;2023-02-13T12:35:34;19.27;;;9.45;;
70078;SDS011;57451;52.496;13.456;2023-02-13T12:38:10;20.65;;;10.10;;
70078;SDS011;57451;52.496;13.456;2023-02-13T12:40:56;21.55;;;10.23;;
70078;SDS011;57451;52.496;13.456;2023-02-13T12:43:46;19.55;;;10.00;;
70078;SDS011;57451;52.496;13.456;2023-02-13T12:46:33;20.77;;;10.03;;
70078;SDS011;57451;52.496;13.456;2023-02-13T12:49:08;20.60;;;10.48;;
70078;SDS011;57451;52.496;13.456;2023-02-13T12:51:50;21.95;;;10.38;;
70078;SDS011;57451;52.496;13.456;2023-02-13T12:54:30;19.65;;;9.80;;
70078;SDS011;57451;52.496;13.456;2023-02-13T12:57:10;22.02;;;9.88;;
70078;SDS011;57451;52.496;13.456;2023-02-13T12:59:48;17.50;;;9.03;;
70078;SDS011;57451;52.496;13.456;2023-02-13T13:02:37;17.73;;;9.23;;
70078;SDS011;57451;52.496;13.456;2023-02-13T13:05:16;21.20;;;9.32;;
70078;SDS011;57451;52.496;13.456;2023-02-13T13:07:57;18.92;;;9.20;;
70078;SDS011;57451;52.496;13.456;2023-02-13T13:10:46;16.08;;;8.32;;
70078;SDS011;57451;52.496;13.456;2023-02-13T13:13:25;15.40;;;8.67;;
70078;SDS011;57451;52.496;13.456;2023-02-13T13:16:01;18.92;;;8.73;;
70078;SDS011;57451;52.496;13.456;2023-02-13T13:18:38;18.65;;;9.43;;
70078;SDS011;57451;52.496;13.456;2023-02-13T13:21:15;22.45;;;10.07;;
70078;SDS011;57451;52.496;13.456;2023-02-13T13:23:51;20.75;;;9.48;;
70078;SDS011;57451;52.496;13.456;2023-02-13T13:26:27;21.53;;;9.43;;
70078;SDS011;57451;52.496;13.456;2023-02-13T13:29:04;24.23;;;11.10;;
70078;SDS011;57451;52.496;13.456;2023-02-13T13:31:36;21.63;;;10.82;;
70078;SDS011;57451;52.496;13.456;2023-02-13T13:34:05;24.40;;;10.55;;
70078;SDS011;57451;52.496;13.456;2023-02-13T13:36:45;20.10;;;9.60;;
70078;SDS011;57451;52.496;13.456;2023-02-13T13:39:19;21.90;;;9.83;;
70078;SDS011;57451;52.496;13.456;2023-02-13T13:42:00;19.65;;;9.65;;
70078;SDS011;57451;52.496;13.456;2023-02-13T13:44:43;19.45;;;9.48;;
70078;SDS011;57451;52.496;13.456;2023-02-13T13:47:31;19.55;;;10.20;;
70078;SDS011;57451;52.496;13.456;2023-02-13T13:50:16;20.10;;;9.02;;
70078;SDS011;57451;52.496;13.456;2023-02-13T13:58:30;23.08;;;10.23;;
70078;SDS011;57451;52.496;13.456;2023-02-13T14:01:20;17.65;;;8.85;;
70078;SDS011;57451;52.496;13.456;2023-02-13T14:03:50;20.95;;;9.38;;
70078;SDS011;57451;52.496;13.456;2023-02-13T14:06:18;19.20;;;9.67;;
70078;SDS011;57451;52.496;13.456;2023-02-13T14:11:48;23.48;;;10.05;;
70078;SDS011;57451;52.496;13.456;2023-02-13T14:17:46;22.20;;;10.48;;
70078;SDS011;57451;52.496;13.456;2023-02-13T14:20:19;21.97;;;10.10;;
70078;SDS011;57451;52.496;13.456;2023-02-13T14:22:52;16.55;;;8.60;;
70078;SDS011;57451;52.496;13.456;2023-02-13T14:25:21;19.77;;;9.68;;
70078;SDS011;57451;52.496;13.456;2023-02-13T14:27:59;21.52;;;9.88;;
70078;SDS011;57451;52.496;13.456;2023-02-13T14:30:30;21.35;;;9.57;;
70078;SDS011;57451;52.496;13.456;2023-02-13T14:33:01;20.57;;;9.03;;
70078;SDS011;57451;52.496;13.456;2023-02-13T14:35:32;20.63;;;9.93;;
70078;SDS011;57451;52.496;13.456;2023-02-13T14:38:01;19.30;;;9.43;;
70078;SDS011;57451;52.496;13.456;2023-02-13T14:46:07;18.73;;;8.83;;
70078;SDS011;57451;52.496;13.456;2023-02-13T14:48:47;22.50;;;9.93;;
70078;SDS011;57451;52.496;13.456;2023-02-13T14:51:21;19.90;;;9.15;;
70078;SDS011;57451;52.496;13.456;2023-02-13T14:53:57;18.38;;;9.07;;
70078;SDS011;57451;52.496;13.456;2023-02-13T14:56:29;20.95;;;9.65;;
70078;SDS011;57451;52.496;13.456;2023-02-13T14:58:59;18.43;;;9.33;;
70078;SDS011;57451;52.496;13.456;2023-02-13T15:01:33;22.83;;;9.80;;
70078;SDS011;57451;52.496;13.456;2023-02-13T15:04:08;21.17;;;9.93;;
70078;SDS011;57451;52.496;13.456;2023-02-13T15:06:39;18.75;;;9.45;;
70078;SDS011;57451;52.496;13.456;2023-02-13T15:09:14;21.05;;;9.70;;
70078;SDS011;57451;52.496;13.456;2023-02-13T15:11:47;20.77;;;9.30;;
70078;SDS011;57451;52.496;13.456;2023-02-13T15:14:16;20.67;;;9.38;;
70078;SDS011;57451;52.496;13.456;2023-02-13T15:16:45;19.98;;;9.40;;
70078;SDS011;57451;52.496;13.456;2023-02-13T15:19:18;17.48;;;8.77;;